Time;durP1;ratioP1;P1;durP2;ratioP2;P2;SDS_P1;SDS_P2;PMS_P1;PMS_P2;Temp;Humidity;BMP_temperature;BMP_pressure;BME280_temperature;BME280_humidity;BME280_pressure;Samples;Min_cycle;Max_cycle;Signal;HPM_P1;HPM_P2
2024/02/17 00:00:00;;;;;;;11.93;11.00;;;12.00;99.90;;;;;;4841619;29;20222;-77
2024/02/17 00:02:28;;;;;;;12.37;11.57;;;12.00;99.90;;;;;;4841825;29;20263;-77
2024/02/17 00:04:56;;;;;;;12.37;11.47;;;11.90;99.90;;;;;;4841670;29;20198;-77
2024/02/17 00:07:23;;;;;;;12.53;11.47;;;11.90;99.90;;;;;;4841797;29;20660;-77
2024/02/17 00:09:50;;;;;;;12.33;11.40;;;11.90;99.90;;;;;;4842505;29;20256;-78
2024/02/17 00:12:17;;;;;;;12.17;11.37;;;11.90;99.90;;;;;;4842753;29;20203;-78
2024/02/17 00:14:44;;;;;;;12.60;11.60;;;11.90;99.90;;;;;;4841368;29;20217;-77
2024/02/17 00:17:10;;;;;;;12.53;11.67;;;11.90;99.90;;;;;;4842988;29;20667;-77
2024/02/17 00:19:37;;;;;;;11.93;11.10;;;11.80;99.90;;;;;;4842165;29;20233;-78
2024/02/17 00:22:05;;;;;;;12.70;11.70;;;11.90;99.90;;;;;;4841532;29;20206;-77
2024/02/17 00:24:32;;;;;;;12.30;11.40;;;11.80;99.90;;;;;;4850077;29;20682;-78
2024/02/17 00:26:59;;;;;;;13.50;12.30;;;11.80;99.90;;;;;;4841443;29;20226;-77
2024/02/17 00:29:26;;;;;;;13.00;12.07;;;11.80;99.90;;;;;;4842742;29;20599;-78
2024/02/17 00:31:53;;;;;;;13.70;12.60;;;11.80;99.90;;;;;;4842802;29;20229;-78
2024/02/17 00:34:20;;;;;;;13.13;12.23;;;11.80;99.90;;;;;;4842390;29;20255;-78
2024/02/17 00:36:46;;;;;;;12.90;12.00;;;11.80;99.90;;;;;;4842464;29;20610;-78
2024/02/17 00:39:15;;;;;;;13.23;12.10;;;11.70;99.90;;;;;;4842294;29;20223;-78
2024/02/17 00:41:42;;;;;;;13.03;12.13;;;11.70;99.90;;;;;;4842708;29;20226;-78
2024/02/17 00:44:09;;;;;;;12.90;12.10;;;11.70;99.90;;;;;;4841446;29;20209;-78
2024/02/17 00:46:35;;;;;;;13.67;12.60;;;11.70;99.90;;;;;;4842275;29;20213;-78
2024/02/17 00:49:02;;;;;;;13.10;12.10;;;11.70;99.90;;;;;;4840567;29;20257;-77
2024/02/17 00:51:29;;;;;;;13.00;12.10;;;11.60;99.90;;;;;;4840869;29;20249;-77
2024/02/17 00:53:56;;;;;;;12.90;11.90;;;11.70;99.90;;;;;;4842299;29;20234;-77
2024/02/17 00:56:24;;;;;;;12.63;11.80;;;11.60;99.90;;;;;;4842323;29;20209;-77
2024/02/17 00:58:51;;;;;;;12.90;12.00;;;11.60;99.90;;;;;;4840632;29;20274;-78
2024/02/17 01:01:18;;;;;;;12.90;12.00;;;11.60;99.90;;;;;;4842099;29;20678;-77
2024/02/17 01:03:44;;;;;;;13.23;12.30;;;11.60;99.90;;;;;;4841631;29;20686;-78
2024/02/17 01:06:11;;;;;;;12.57;11.60;;;11.60;99.90;;;;;;4842181;29;20241;-78
2024/02/17 01:08:38;;;;;;;12.70;11.90;;;11.70;99.90;;;;;;4840252;29;20234;-78
2024/02/17 01:11:05;;;;;;;12.73;11.83;;;11.70;99.90;;;;;;4843607;29;20587;-78
2024/02/17 01:13:33;;;;;;;12.50;11.67;;;11.70;99.90;;;;;;4840709;29;20221;-77
2024/02/17 01:16:01;;;;;;;12.60;11.80;;;11.60;99.90;;;;;;4841820;29;20226;-77
2024/02/17 01:18:28;;;;;;;12.70;11.80;;;11.70;99.90;;;;;;4841746;29;20317;-78
2024/02/17 01:20:55;;;;;;;12.17;11.37;;;11.70;99.90;;;;;;4840338;29;20214;-77
2024/02/17 01:23:21;;;;;;;12.47;11.67;;;11.60;99.90;;;;;;4841718;29;20259;-78
2024/02/17 01:25:48;;;;;;;12.60;11.70;;;11.70;99.90;;;;;;4841695;29;20229;-77
2024/02/17 01:28:15;;;;;;;12.67;11.77;;;11.70;99.90;;;;;;4840226;29;20225;-77
2024/02/17 01:30:43;;;;;;;12.57;11.77;;;11.70;99.90;;;;;;4841586;29;20214;-77
2024/02/17 01:33:10;;;;;;;11.80;11.10;;;11.70;99.90;;;;;;4840104;29;20638;-77
2024/02/17 01:35:37;;;;;;;11.63;10.90;;;11.60;99.90;;;;;;4841593;29;20218;-78
2024/02/17 01:38:07;;;;;;;12.03;11.23;;;11.70;99.90;;;;;;4840114;29;20644;-78
2024/02/17 01:40:34;;;;;;;12.40;11.50;;;11.60;99.90;;;;;;4840539;29;20634;-78
2024/02/17 01:43:01;;;;;;;11.83;11.13;;;11.70;99.90;;;;;;4841164;29;20222;-77
2024/02/17 01:45:28;;;;;;;11.73;11.03;;;11.70;99.90;;;;;;4841415;29;20217;-78
2024/02/17 01:47:57;;;;;;;12.23;11.40;;;11.70;99.90;;;;;;4841012;29;20217;-78
2024/02/17 01:50:24;;;;;;;11.70;11.00;;;11.70;99.90;;;;;;4840120;29;20234;-78
2024/02/17 01:52:51;;;;;;;12.10;11.20;;;11.70;99.90;;;;;;4840319;29;20221;-77
2024/02/17 01:55:19;;;;;;;12.00;11.20;;;11.70;99.90;;;;;;4834745;29;20214;-78
2024/02/17 01:57:47;;;;;;;11.10;10.40;;;11.70;99.90;;;;;;4841310;29;20226;-77
2024/02/17 02:00:16;;;;;;;11.70;11.00;;;11.70;99.90;;;;;;4841053;29;20229;-78
2024/02/17 02:02:45;;;;;;;10.83;10.13;;;11.70;99.90;;;;;;4840975;29;20201;-77
2024/02/17 02:05:14;;;;;;;9.73;9.13;;;11.70;99.90;;;;;;4843503;29;20253;-77
2024/02/17 02:07:41;;;;;;;9.50;8.90;;;11.70;99.90;;;;;;4844955;29;20270;-77
2024/02/17 02:10:08;;;;;;;10.90;10.10;;;11.70;99.90;;;;;;4844851;29;20222;-78
2024/02/17 02:12:35;;;;;;;10.80;10.07;;;11.70;99.90;;;;;;4843529;29;20214;-77
2024/02/17 02:15:06;;;;;;;11.10;10.40;;;11.70;99.90;;;;;;4844979;29;20226;-77
2024/02/17 02:17:33;;;;;;;12.10;11.30;;;11.70;99.90;;;;;;4844676;29;20193;-76
2024/02/17 02:20:00;;;;;;;11.37;10.67;;;11.70;99.90;;;;;;4844368;29;20237;-77
2024/02/17 02:22:28;;;;;;;12.23;11.43;;;11.70;99.90;;;;;;4843677;29;20213;-77
2024/02/17 02:24:59;;;;;;;10.17;9.47;;;11.60;99.90;;;;;;4844731;29;20209;-78
2024/02/17 02:27:27;;;;;;;9.07;8.37;;;11.70;99.90;;;;;;4844582;29;20210;-77
2024/02/17 02:29:56;;;;;;;10.80;10.00;;;11.70;99.90;;;;;;4844550;29;20285;-77
2024/02/17 02:32:25;;;;;;;9.17;8.30;;;11.60;99.90;;;;;;4844646;29;20206;-77
2024/02/17 02:34:52;;;;;;;8.70;8.00;;;11.60;99.90;;;;;;4842948;29;20207;-78
2024/02/17 02:37:19;;;;;;;6.97;6.47;;;11.60;99.90;;;;;;4843527;29;20198;-78
2024/02/17 02:39:46;;;;;;;7.80;7.13;;;11.60;99.90;;;;;;4842716;29;20273;-77
2024/02/17 02:42:13;;;;;;;6.10;5.60;;;11.60;99.90;;;;;;4843257;29;20217;-78
2024/02/17 02:44:41;;;;;;;6.13;5.70;;;11.60;99.90;;;;;;4843082;29;20233;-78
2024/02/17 02:47:08;;;;;;;7.27;6.67;;;11.60;99.90;;;;;;4850607;29;20213;-77
2024/02/17 02:49:35;;;;;;;9.00;8.40;;;11.60;99.90;;;;;;4843754;29;20261;-77
2024/02/17 02:52:02;;;;;;;13.23;12.43;;;11.60;99.90;;;;;;4844442;29;20202;-77
2024/02/17 02:54:28;;;;;;;12.70;11.90;;;11.60;99.90;;;;;;4843954;29;20682;-77
2024/02/17 02:56:55;;;;;;;12.30;11.50;;;11.60;99.90;;;;;;4844284;29;20205;-77
2024/02/17 02:59:22;;;;;;;12.77;11.97;;;11.60;99.90;;;;;;4844131;29;20259;-77
2024/02/17 03:01:50;;;;;;;13.50;12.60;;;11.50;99.90;;;;;;4844469;29;20207;-78
2024/02/17 03:04:17;;;;;;;13.30;12.40;;;11.50;99.90;;;;;;4844314;29;20232;-77
2024/02/17 03:06:44;;;;;;;13.27;12.27;;;11.50;99.90;;;;;;4844466;29;20764;-77
2024/02/17 03:09:10;;;;;;;13.80;12.80;;;11.50;99.90;;;;;;4844030;29;20230;-78
2024/02/17 03:11:37;;;;;;;13.77;12.80;;;11.50;99.90;;;;;;4844265;29;20204;-77
2024/02/17 03:14:04;;;;;;;13.07;12.27;;;11.50;99.90;;;;;;4844140;29;20209;-76
2024/02/17 03:16:31;;;;;;;13.97;12.87;;;11.40;99.90;;;;;;4843135;29;20209;-77
2024/02/17 03:18:59;;;;;;;13.97;13.07;;;11.40;99.90;;;;;;4842009;29;20725;-77
2024/02/17 03:21:26;;;;;;;13.10;12.20;;;11.40;99.90;;;;;;4844379;29;20213;-77
2024/02/17 03:23:52;;;;;;;14.10;13.17;;;11.40;99.90;;;;;;4842944;29;20247;-78
2024/02/17 03:26:19;;;;;;;13.80;12.87;;;11.40;99.90;;;;;;4844139;29;20747;-77
2024/02/17 03:28:46;;;;;;;13.27;12.47;;;11.40;99.90;;;;;;4844574;29;20297;-78
2024/02/17 03:31:13;;;;;;;13.57;12.77;;;11.40;99.90;;;;;;4844967;29;20209;-77
2024/02/17 03:33:40;;;;;;;13.20;12.40;;;11.40;99.90;;;;;;4843840;29;20203;-78
2024/02/17 03:36:08;;;;;;;13.90;12.90;;;11.40;99.90;;;;;;4842986;29;20637;-77
2024/02/17 03:38:35;;;;;;;13.77;12.77;;;11.40;99.90;;;;;;4843880;29;20226;-77
2024/02/17 03:41:02;;;;;;;13.50;12.63;;;11.40;99.90;;;;;;4842735;29;20211;-78
2024/02/17 03:43:30;;;;;;;13.40;12.57;;;11.30;99.90;;;;;;4844238;29;20220;-77
2024/02/17 03:45:56;;;;;;;15.10;14.10;;;11.30;99.90;;;;;;4843627;29;20206;-77
2024/02/17 03:48:23;;;;;;;14.63;13.63;;;11.30;99.90;;;;;;4843289;29;20265;-77
2024/02/17 03:50:50;;;;;;;15.27;14.20;;;11.20;99.90;;;;;;4843857;29;20213;-77
2024/02/17 03:53:19;;;;;;;15.47;14.43;;;11.20;99.90;;;;;;4842580;29;20242;-80
2024/02/17 03:55:46;;;;;;;15.47;14.57;;;11.10;99.90;;;;;;4842616;29;20213;-77
2024/02/17 03:58:13;;;;;;;15.50;14.47;;;11.10;99.90;;;;;;4843414;29;20199;-77
2024/02/17 04:00:40;;;;;;;16.53;15.40;;;11.10;99.90;;;;;;4844224;29;20206;-77
2024/02/17 04:03:06;;;;;;;15.43;14.47;;;11.10;99.90;;;;;;4836466;29;20561;-79
2024/02/17 04:05:33;;;;;;;17.27;16.17;;;11.00;99.90;;;;;;4833875;29;20563;-79
2024/02/17 04:08:00;;;;;;;15.57;14.47;;;11.00;99.90;;;;;;4838737;29;20607;-80
2024/02/17 04:10:28;;;;;;;15.77;14.67;;;11.00;99.90;;;;;;4849092;29;20793;-80
2024/02/17 04:12:55;;;;;;;15.43;14.43;;;11.00;99.90;;;;;;4843865;29;20213;-79
2024/02/17 04:15:22;;;;;;;15.50;14.50;;;10.90;99.90;;;;;;4845357;29;20213;-78
2024/02/17 04:17:49;;;;;;;15.93;14.83;;;10.90;99.90;;;;;;4843913;29;20207;-79
2024/02/17 04:20:16;;;;;;;15.47;14.43;;;10.90;99.90;;;;;;4842776;29;20236;-79
2024/02/17 04:22:43;;;;;;;15.20;14.13;;;10.90;99.90;;;;;;4842408;29;20209;-79
2024/02/17 04:25:10;;;;;;;15.43;14.43;;;10.90;99.90;;;;;;4837605;29;20213;-79
2024/02/17 04:27:38;;;;;;;16.00;14.80;;;10.90;99.90;;;;;;4845512;29;20216;-80
2024/02/17 04:30:06;;;;;;;15.60;14.50;;;10.90;99.90;;;;;;4849058;29;20607;-79
2024/02/17 04:32:33;;;;;;;16.73;15.53;;;10.90;99.90;;;;;;4851730;29;20210;-80
2024/02/17 04:35:00;;;;;;;15.97;14.87;;;10.80;99.90;;;;;;4843051;29;20767;-79
2024/02/17 04:37:26;;;;;;;18.30;17.10;;;10.80;99.90;;;;;;4847791;29;20238;-80
2024/02/17 04:39:53;;;;;;;16.17;15.03;;;10.80;99.90;;;;;;4841140;29;20658;-78
2024/02/17 04:42:20;;;;;;;15.13;14.13;;;10.80;99.90;;;;;;4842326;29;20243;-79
2024/02/17 04:44:48;;;;;;;15.87;14.77;;;10.80;99.90;;;;;;4840861;29;20213;-79
2024/02/17 04:47:15;;;;;;;15.67;14.53;;;10.80;99.90;;;;;;4842151;29;20220;-79
2024/02/17 04:49:42;;;;;;;16.97;15.77;;;10.80;99.90;;;;;;4843058;29;20232;-79
2024/02/17 04:52:09;;;;;;;16.03;14.83;;;10.80;99.90;;;;;;4840463;29;20659;-79
2024/02/17 04:54:35;;;;;;;17.37;15.97;;;10.70;99.90;;;;;;4836864;29;20270;-79
2024/02/17 04:57:02;;;;;;;17.33;16.13;;;10.80;99.90;;;;;;4856510;29;20208;-77
2024/02/17 04:59:30;;;;;;;18.13;16.83;;;10.70;99.90;;;;;;4841922;29;20225;-76
2024/02/17 05:01:59;;;;;;;18.17;16.73;;;10.70;99.90;;;;;;4837333;29;20292;-76
2024/02/17 05:04:25;;;;;;;17.80;16.40;;;10.70;99.90;;;;;;4841623;29;20204;-77
2024/02/17 05:06:52;;;;;;;17.80;16.40;;;10.70;99.90;;;;;;4843357;29;20236;-76
2024/02/17 05:09:19;;;;;;;17.60;16.30;;;10.70;99.90;;;;;;4844412;29;20241;-76
2024/02/17 05:11:46;;;;;;;18.80;17.23;;;10.70;99.90;;;;;;4843358;29;20216;-77
2024/02/17 05:14:15;;;;;;;18.00;16.67;;;10.70;99.90;;;;;;4843191;29;20236;-77
2024/02/17 05:16:43;;;;;;;17.40;16.10;;;10.60;99.90;;;;;;4845362;29;20224;-77
2024/02/17 05:19:13;;;;;;;18.90;17.40;;;10.60;99.90;;;;;;4843910;29;20229;-77
2024/02/17 05:21:42;;;;;;;19.57;18.13;;;10.60;99.90;;;;;;4842978;29;20719;-76
2024/02/17 05:24:09;;;;;;;19.53;17.97;;;10.60;99.90;;;;;;4844971;29;20205;-77
2024/02/17 05:26:36;;;;;;;19.93;18.33;;;10.50;99.90;;;;;;4845221;29;20273;-77
2024/02/17 05:29:05;;;;;;;17.80;16.50;;;10.50;99.90;;;;;;4844597;29;20220;-77
2024/02/17 05:31:32;;;;;;;19.27;17.77;;;10.60;99.90;;;;;;4843428;29;20208;-78
2024/02/17 05:33:59;;;;;;;18.77;17.27;;;10.50;99.90;;;;;;4841121;29;20223;-78
2024/02/17 05:36:28;;;;;;;17.97;16.67;;;10.60;99.90;;;;;;4840176;29;20249;-78
2024/02/17 05:38:55;;;;;;;18.77;17.27;;;10.60;99.90;;;;;;4839083;29;20758;-78
2024/02/17 05:41:22;;;;;;;18.47;17.13;;;10.50;99.90;;;;;;4839903;29;20236;-79
2024/02/17 05:43:49;;;;;;;18.40;17.00;;;10.50;99.90;;;;;;4841056;29;20208;-78
2024/02/17 05:46:16;;;;;;;18.60;17.20;;;10.60;99.90;;;;;;4840087;29;20223;-79
2024/02/17 05:48:44;;;;;;;19.80;18.17;;;10.50;99.90;;;;;;4839845;29;20247;-78
2024/02/17 05:51:11;;;;;;;18.63;17.23;;;10.50;99.90;;;;;;4840098;29;20204;-79
2024/02/17 05:53:40;;;;;;;17.73;16.40;;;10.50;99.90;;;;;;4839938;29;20212;-79
2024/02/17 05:56:07;;;;;;;18.83;17.43;;;10.50;99.90;;;;;;4840750;29;20212;-78
2024/02/17 05:58:35;;;;;;;18.70;17.10;;;10.50;99.90;;;;;;4843757;29;20258;-79
2024/02/17 06:01:01;;;;;;;18.97;17.53;;;10.50;99.90;;;;;;4842435;29;20227;-78
2024/02/17 06:03:28;;;;;;;20.13;18.57;;;10.50;99.90;;;;;;4843297;29;20195;-80
2024/02/17 06:05:55;;;;;;;18.97;17.37;;;10.50;99.90;;;;;;4850586;29;20210;-78
2024/02/17 06:08:22;;;;;;;18.23;16.83;;;10.50;99.90;;;;;;4844512;29;20696;-77
2024/02/17 06:10:51;;;;;;;18.10;16.70;;;10.50;99.90;;;;;;4840964;29;20215;-77
2024/02/17 06:13:19;;;;;;;17.63;16.33;;;10.50;99.90;;;;;;4841072;29;20212;-77
2024/02/17 06:15:45;;;;;;;18.80;17.33;;;10.50;99.90;;;;;;4842498;29;20239;-77
2024/02/17 06:21:13;;;;;;;18.77;17.37;;;10.60;99.90;;;;;;4806616;29;20193;-77
2024/02/17 06:23:41;;;;;;;20.97;19.20;;;10.50;99.90;;;;;;4806038;29;20212;-77
2024/02/17 06:26:20;;;;;;;19.70;18.20;;;10.50;99.90;;;;;;4829901;29;20220;-78
2024/02/17 06:28:47;;;;;;;19.27;17.77;;;10.50;99.90;;;;;;4842791;29;20789;-77
2024/02/17 06:31:14;;;;;;;21.13;19.43;;;10.60;99.90;;;;;;4840809;29;20557;-77
2024/02/17 06:33:40;;;;;;;19.57;17.97;;;10.50;99.90;;;;;;4842724;29;20225;-77
2024/02/17 06:36:08;;;;;;;20.00;18.50;;;10.60;99.90;;;;;;4843079;29;20199;-76
2024/02/17 06:38:34;;;;;;;21.13;19.47;;;10.50;99.90;;;;;;4842441;29;20221;-76
2024/02/17 06:41:02;;;;;;;21.57;19.77;;;10.50;99.90;;;;;;4841238;29;20266;-76
2024/02/17 06:43:30;;;;;;;21.70;20.10;;;10.50;99.90;;;;;;4842493;29;20208;-77
2024/02/17 06:45:58;;;;;;;22.17;20.30;;;10.50;99.90;;;;;;4842143;29;20227;-77
2024/02/17 06:48:26;;;;;;;21.00;19.23;;;10.60;99.90;;;;;;4841337;29;20217;-77
2024/02/17 06:50:52;;;;;;;19.07;17.57;;;10.50;99.90;;;;;;4842552;29;20224;-78
2024/02/17 06:53:20;;;;;;;18.87;17.47;;;10.50;99.90;;;;;;4844612;29;20231;-77
2024/02/17 06:55:46;;;;;;;22.47;20.57;;;10.50;99.90;;;;;;4845265;29;20656;-77
2024/02/17 06:58:14;;;;;;;21.03;19.13;;;10.60;99.90;;;;;;4845815;29;20223;-77
2024/02/17 07:00:42;;;;;;;19.90;18.30;;;10.60;99.90;;;;;;4845332;29;20196;-77
2024/02/17 07:03:09;;;;;;;22.13;20.23;;;10.50;99.90;;;;;;4844261;29;20289;-77
2024/02/17 07:05:38;;;;;;;20.17;18.50;;;10.50;99.90;;;;;;4838122;29;20215;-77
2024/02/17 07:08:07;;;;;;;21.20;19.50;;;10.50;99.90;;;;;;4846045;29;20257;-78
2024/02/17 07:10:35;;;;;;;21.17;19.47;;;10.50;99.90;;;;;;4838240;29;20228;-77
2024/02/17 07:13:03;;;;;;;21.73;19.90;;;10.50;99.90;;;;;;4846262;29;20591;-77
2024/02/17 07:15:30;;;;;;;21.73;19.93;;;10.50;99.90;;;;;;4845881;29;20266;-78
2024/02/17 07:18:01;;;;;;;21.20;19.47;;;10.50;99.90;;;;;;4845353;29;20299;-79
2024/02/17 07:20:28;;;;;;;21.03;19.27;;;10.50;99.90;;;;;;4844474;29;20835;-77
2024/02/17 07:22:56;;;;;;;21.77;20.07;;;10.60;99.90;;;;;;4844626;29;20208;-78
2024/02/17 07:25:23;;;;;;;21.10;19.40;;;10.60;99.90;;;;;;4846590;29;20299;-84
2024/02/17 07:27:50;;;;;;;23.43;21.43;;;10.60;99.90;;;;;;4852765;29;20257;-79
2024/02/17 07:30:17;;;;;;;21.67;19.97;;;10.60;99.90;;;;;;4844078;29;20955;-79
2024/02/17 07:32:44;;;;;;;21.00;19.30;;;10.70;99.90;;;;;;4844310;29;20216;-79
2024/02/17 07:35:12;;;;;;;20.67;18.97;;;10.80;99.90;;;;;;4843049;29;20690;-81
2024/02/17 07:37:39;;;;;;;20.40;18.80;;;10.80;99.90;;;;;;4844595;29;20206;-77
2024/02/17 07:40:08;;;;;;;20.60;19.00;;;10.90;99.90;;;;;;4842216;29;20217;-78
2024/02/17 07:42:36;;;;;;;20.10;18.53;;;10.90;99.90;;;;;;4844093;29;20710;-79
2024/02/17 07:45:03;;;;;;;21.23;19.50;;;11.00;99.90;;;;;;4849260;29;20238;-78
2024/02/17 07:47:32;;;;;;;20.67;18.97;;;11.00;99.90;;;;;;4844678;29;20215;-78
2024/02/17 07:49:59;;;;;;;20.53;18.93;;;11.10;99.90;;;;;;4841827;29;20268;-77
2024/02/17 07:52:27;;;;;;;20.40;18.80;;;11.10;99.90;;;;;;4843761;29;20209;-77
2024/02/17 07:54:54;;;;;;;18.97;17.47;;;11.20;99.90;;;;;;4842910;29;20236;-78
2024/02/17 07:57:21;;;;;;;18.97;17.47;;;11.20;99.90;;;;;;4843313;29;20273;-79
2024/02/17 07:59:47;;;;;;;21.33;19.53;;;11.20;99.90;;;;;;4845574;29;20639;-77
2024/02/17 08:02:14;;;;;;;16.83;15.33;;;11.20;99.90;;;;;;4846917;29;20739;-76
2024/02/17 08:04:42;;;;;;;19.73;18.03;;;11.20;99.90;;;;;;4845872;29;20213;-77
2024/02/17 08:07:09;;;;;;;21.13;19.43;;;11.20;99.90;;;;;;4846521;29;20226;-78
2024/02/17 08:09:37;;;;;;;21.10;19.30;;;11.20;99.90;;;;;;4844830;29;20246;-77
2024/02/17 08:12:05;;;;;;;21.07;19.37;;;11.30;99.90;;;;;;4843002;29;20222;-80
2024/02/17 08:14:32;;;;;;;22.40;20.50;;;11.40;99.90;;;;;;4846734;29;20214;-79
2024/02/17 08:16:59;;;;;;;21.27;19.37;;;11.40;99.90;;;;;;4842046;29;20625;-78
2024/02/17 08:19:26;;;;;;;20.20;18.50;;;11.40;99.90;;;;;;4843602;29;20229;-79
2024/02/17 08:21:53;;;;;;;22.93;20.93;;;11.40;99.90;;;;;;4843317;29;20207;-79
2024/02/17 08:24:20;;;;;;;22.77;20.87;;;11.50;99.90;;;;;;4842346;29;20257;-79
2024/02/17 08:26:48;;;;;;;21.53;19.73;;;11.50;99.90;;;;;;4841715;29;20230;-78
2024/02/17 08:29:15;;;;;;;22.47;20.57;;;11.80;99.90;;;;;;4842355;29;20231;-78
2024/02/17 08:31:48;;;;;;;20.43;18.63;;;12.10;99.90;;;;;;4841207;29;20690;-79
2024/02/17 08:34:15;;;;;;;20.40;18.70;;;12.60;99.90;;;;;;4841874;29;20207;-79
2024/02/17 08:36:42;;;;;;;19.67;17.93;;;13.10;99.90;;;;;;4843835;29;20251;-77
2024/02/17 08:39:09;;;;;;;21.37;19.53;;;13.50;99.90;;;;;;4842405;29;20250;-79
2024/02/17 08:41:35;;;;;;;22.03;20.13;;;13.50;99.90;;;;;;4843586;29;22014;-79
2024/02/17 08:44:04;;;;;;;21.83;20.03;;;13.40;99.90;;;;;;4838514;29;20214;-80
2024/02/17 08:46:31;;;;;;;17.50;15.70;;;13.40;99.90;;;;;;4840359;29;21032;-78
2024/02/17 08:48:57;;;;;;;17.60;15.90;;;13.40;99.90;;;;;;4841616;29;20697;-79
2024/02/17 08:51:24;;;;;;;20.03;18.27;;;13.50;99.90;;;;;;4842450;29;20227;-80
2024/02/17 08:53:52;;;;;;;16.90;15.33;;;13.40;99.90;;;;;;4842535;29;20210;-80
2024/02/17 08:56:20;;;;;;;16.47;14.90;;;13.30;99.90;;;;;;4841962;29;20208;-78
2024/02/17 08:58:47;;;;;;;18.90;17.03;;;13.20;99.90;;;;;;4842258;29;20227;-77
2024/02/17 09:01:15;;;;;;;19.27;17.57;;;13.20;99.90;;;;;;4840763;29;20232;-78
2024/02/17 09:03:43;;;;;;;19.40;17.60;;;13.10;99.90;;;;;;4841367;29;20200;-78
2024/02/17 09:06:10;;;;;;;20.13;18.33;;;13.10;99.90;;;;;;4841886;29;20223;-78
2024/02/17 09:08:37;;;;;;;23.53;21.73;;;13.00;99.90;;;;;;4840457;29;20235;-78
2024/02/17 09:11:04;;;;;;;19.50;17.90;;;13.00;99.90;;;;;;4842532;29;20232;-78
2024/02/17 09:13:31;;;;;;;21.10;19.20;;;13.00;99.90;;;;;;4840031;29;20261;-77
2024/02/17 09:15:57;;;;;;;21.77;19.87;;;12.90;99.90;;;;;;4842316;29;20214;-79
2024/02/17 09:18:25;;;;;;;21.90;20.07;;;12.90;99.90;;;;;;4840731;29;20217;-78
2024/02/17 09:20:51;;;;;;;20.07;18.27;;;12.70;99.90;;;;;;4841642;29;20206;-78
2024/02/17 09:23:18;;;;;;;17.87;16.47;;;12.70;99.90;;;;;;4845082;29;20260;-78
2024/02/17 09:25:45;;;;;;;20.87;19.00;;;12.80;99.90;;;;;;4843235;29;20227;-78
2024/02/17 09:28:12;;;;;;;19.70;18.00;;;12.80;99.90;;;;;;4842866;29;20275;-78
2024/02/17 09:30:38;;;;;;;19.10;17.40;;;12.80;99.90;;;;;;4839744;29;20225;-78
2024/02/17 09:33:06;;;;;;;17.77;16.27;;;13.00;99.90;;;;;;4841301;29;20206;-78
2024/02/17 09:35:34;;;;;;;19.50;17.83;;;13.10;99.90;;;;;;4847272;29;20282;-79
2024/02/17 09:38:00;;;;;;;20.43;18.60;;;13.20;99.90;;;;;;4841059;29;20212;-79
2024/02/17 09:40:27;;;;;;;19.07;17.53;;;13.20;99.90;;;;;;4843224;29;20224;-78
2024/02/17 09:42:54;;;;;;;20.73;18.93;;;13.20;99.90;;;;;;4842096;29;20645;-78
2024/02/17 09:45:21;;;;;;;18.63;17.10;;;13.20;99.90;;;;;;4842347;29;20209;-78
2024/02/17 09:47:50;;;;;;;17.93;16.53;;;13.10;99.90;;;;;;4836256;29;20202;-77
2024/02/17 09:50:18;;;;;;;17.47;15.97;;;13.10;99.90;;;;;;4842899;29;20774;-76
2024/02/17 09:52:48;;;;;;;17.80;16.30;;;13.00;99.90;;;;;;4843445;29;20271;-76
2024/02/17 09:55:16;;;;;;;17.80;16.33;;;13.00;99.90;;;;;;4844679;29;20245;-77
2024/02/17 09:57:43;;;;;;;17.37;15.87;;;12.90;99.90;;;;;;4841336;29;20215;-77
2024/02/17 10:00:13;;;;;;;18.03;16.63;;;13.00;99.90;;;;;;4843545;29;20258;-77
2024/02/17 10:02:41;;;;;;;10.50;9.27;;;12.90;99.90;;;;;;4845238;29;20225;-77
2024/02/17 10:05:08;;;;;;;11.50;9.67;;;13.00;99.90;;;;;;4845408;29;20212;-77
2024/02/17 10:07:49;;;;;;;9.77;8.77;;;13.00;99.90;;;;;;4840053;29;20212;-77
2024/02/17 10:10:15;;;;;;;9.23;8.33;;;13.10;99.90;;;;;;4855444;29;20242;-77
2024/02/17 10:12:51;;;;;;;11.30;9.47;;;13.20;99.90;;;;;;4844301;29;20615;-77
2024/02/17 10:15:19;;;;;;;11.30;9.30;;;13.10;99.90;;;;;;4843059;29;20219;-78
2024/02/17 10:17:51;;;;;;;12.63;9.70;;;13.00;99.90;;;;;;4843774;29;20243;-80
2024/02/17 10:20:18;;;;;;;11.07;9.87;;;12.80;99.90;;;;;;4840699;29;20227;-80
2024/02/17 10:22:46;;;;;;;12.70;10.18;;;12.60;99.90;;;;;;4843688;29;20460;-77
2024/02/17 10:25:15;;;;;;;10.13;9.10;;;12.50;99.90;;;;;;4844843;29;20209;-78
2024/02/17 10:27:44;;;;;;;10.50;9.50;;;12.50;99.90;;;;;;4846074;29;20206;-77
2024/02/17 10:30:14;;;;;;;11.63;9.60;;;12.80;99.90;;;;;;4847056;29;20660;-77
2024/02/17 10:32:41;;;;;;;9.57;8.57;;;13.00;99.90;;;;;;4846811;29;20230;-77
2024/02/17 10:35:09;;;;;;;9.87;8.67;;;13.10;99.90;;;;;;4848251;29;20210;-77
2024/02/17 10:37:39;;;;;;;9.93;8.93;;;13.10;99.90;;;;;;4847471;29;20209;-77
2024/02/17 10:40:08;;;;;;;9.70;8.70;;;13.30;99.90;;;;;;4847592;29;20283;-77
2024/02/17 10:42:36;;;;;;;10.07;8.87;;;13.30;99.90;;;;;;4846396;29;20255;-77
2024/02/17 10:45:04;;;;;;;9.87;8.87;;;13.30;99.90;;;;;;4846959;29;20626;-77
2024/02/17 10:47:35;;;;;;;10.67;9.10;;;13.40;99.90;;;;;;4847172;29;20215;-78
2024/02/17 10:50:12;;;;;;;9.20;8.20;;;13.50;99.90;;;;;;4846048;29;20225;-77
2024/02/17 10:52:44;;;;;;;10.60;8.50;;;14.00;99.90;;;;;;4845643;29;20245;-77
2024/02/17 10:55:12;;;;;;;8.70;7.47;;;14.20;99.90;;;;;;4847432;29;20206;-77
2024/02/17 10:57:52;;;;;;;7.17;6.40;;;14.30;99.90;;;;;;4845993;29;20208;-77
2024/02/17 11:00:20;;;;;;;8.73;6.57;;;14.30;99.90;;;;;;4846222;29;20229;-76
2024/02/17 11:02:49;;;;;;;11.43;8.90;;;14.20;99.90;;;;;;4846987;29;20207;-77
2024/02/17 11:05:16;;;;;;;8.33;7.53;;;14.20;99.90;;;;;;4845956;29;20226;-77
2024/02/17 11:07:43;;;;;;;7.70;6.87;;;14.20;99.90;;;;;;4843931;29;20677;-77
2024/02/17 11:10:12;;;;;;;6.73;6.10;;;14.30;99.90;;;;;;4847105;29;20261;-77
2024/02/17 11:12:39;;;;;;;6.83;6.10;;;14.40;99.90;;;;;;4844948;29;20216;-77
2024/02/17 11:15:10;;;;;;;7.07;5.30;;;14.40;99.90;;;;;;4845141;29;20278;-77
2024/02/17 11:17:40;;;;;;;13.50;12.37;;;14.40;99.90;;;;;;4845868;29;20221;-78
2024/02/17 11:20:11;;;;;;;11.47;10.57;;;14.50;99.90;;;;;;4846691;29;20285;-77
2024/02/17 11:22:41;;;;;;;11.00;10.20;;;14.40;99.90;;;;;;4847056;29;20300;-78
2024/02/17 11:25:09;;;;;;;10.50;9.63;;;14.40;99.90;;;;;;4846482;29;20206;-77
2024/02/17 11:27:36;;;;;;;11.80;10.70;;;14.40;99.90;;;;;;4847445;29;20654;-77
2024/02/17 11:30:06;;;;;;;12.80;11.83;;;14.20;99.90;;;;;;4845649;29;20222;-77
2024/02/17 11:32:34;;;;;;;12.63;11.63;;;14.00;99.90;;;;;;4842052;29;20211;-77
2024/02/17 11:35:02;;;;;;;12.53;11.43;;;13.90;99.90;;;;;;4839709;29;20236;-77
2024/02/17 11:37:33;;;;;;;11.90;11.00;;;14.00;99.90;;;;;;4845297;29;20205;-81
2024/02/17 11:40:01;;;;;;;11.80;10.90;;;13.90;99.90;;;;;;4842829;29;20257;-79
2024/02/17 11:42:30;;;;;;;12.50;11.50;;;13.90;99.90;;;;;;4844558;29;20213;-80
2024/02/17 11:44:58;;;;;;;12.37;11.27;;;13.80;99.90;;;;;;4846565;29;20299;-78
2024/02/17 11:47:29;;;;;;;11.40;10.50;;;13.70;99.90;;;;;;4847898;29;20674;-81
2024/02/17 11:50:08;;;;;;;12.73;11.73;;;13.80;99.90;;;;;;4841763;29;20233;-82
2024/02/17 11:52:35;;;;;;;12.60;11.70;;;13.70;99.90;;;;;;4841995;29;20208;-79
2024/02/17 11:55:02;;;;;;;12.27;11.17;;;13.80;99.90;;;;;;4844696;29;20209;-82
2024/02/17 11:57:31;;;;;;;12.37;11.37;;;14.00;99.90;;;;;;4842999;29;20210;-80
2024/02/17 11:59:58;;;;;;;14.70;13.60;;;14.10;99.90;;;;;;4844705;29;20301;-77
2024/02/17 12:02:26;;;;;;;13.40;12.47;;;14.10;99.90;;;;;;4846724;29;20205;-77
2024/02/17 12:04:53;;;;;;;12.00;11.10;;;14.10;99.90;;;;;;4846534;29;20221;-77
2024/02/17 12:07:21;;;;;;;12.80;11.90;;;14.10;99.90;;;;;;4845976;29;20219;-77
2024/02/17 12:09:48;;;;;;;12.93;11.90;;;13.90;99.90;;;;;;4848048;29;20241;-76
2024/02/17 12:12:15;;;;;;;12.77;11.87;;;13.80;99.90;;;;;;4846969;29;20235;-80
2024/02/17 12:14:42;;;;;;;12.80;11.70;;;13.70;99.90;;;;;;4839433;29;20207;-77
2024/02/17 12:17:09;;;;;;;13.40;12.37;;;13.50;99.90;;;;;;4842030;29;20249;-78
2024/02/17 12:19:36;;;;;;;12.23;11.40;;;13.40;99.90;;;;;;4834276;29;20718;-78
2024/02/17 12:22:03;;;;;;;12.57;11.63;;;13.30;99.90;;;;;;4837828;29;20460;-79
2024/02/17 12:24:31;;;;;;;13.00;11.90;;;13.10;99.90;;;;;;4844360;29;20200;-80
2024/02/17 12:27:24;;;;;;;12.63;11.73;;;12.90;99.90;;;;;;4850192;29;20229;-83
2024/02/17 12:29:51;;;;;;;12.73;11.83;;;12.90;99.90;;;;;;4850325;29;20630;-80
2024/02/17 12:32:21;;;;;;;13.10;11.97;;;13.00;99.90;;;;;;4844503;29;20219;-78